Beverly Hills, CA (90209)

3:01 AM PST on December 07, 2016 (GMT -0800)
Laurel Canyon | | Change Station

Elev 1069 ft 34.11 °N, 118.38 °W | Updated 9 minutes ago

Overcast
Overcast
49.2 °F
Feels Like 49.2 °F
N
3.0
Wind Variable Wind from NE

Today
High -- | Low -- °F
--% Chance of Precip.
Yesterday
High -- | Low -- °F
Precip. -- in
Pressure 30.03 in
Visibility 10.0 miles
Clouds Overcast 2900 ft
Dew Point 33.0 °F
Humidity 55%
Rainfall 0.00 in
Snow Depth Not available.
6:46 AM 4:44 PM
Waxing Crescent, 51% visible
METAR KSMO 071051Z AUTO 00000KT 10SM OVC029 11/04 A3003 RMK AO2 SLP168 T01110044
Pressure 30.03 in
Visibility 10.0 miles
Clouds Overcast 2900 ft
Dew Point 33.0 °F
Humidity 55%
Rainfall 0.00 in
Snow Depth Not available.
6:46 AM 4:44 PM
Waxing Crescent, 51% visible
METAR KSMO 071051Z AUTO 00000KT 10SM OVC029 11/04 A3003 RMK AO2 SLP168 T01110044

10-Day Weather Forecast

Almanac

Astronomy

Dec. 07, 2016 Rise Set
Actual Time
Civil Twilight
Nautical Twilight
Astronomical Twilight
Moon
Length of Visible Light
Length of Day
Tomorrow will be .
, % of the Moon is Illuminated

Today's Extremes

State Highs State Lows

Community

WunderPhotos

Upload Photos

1,956,111 photos uploaded!

WunderBlog® & News

Nearby

Air Quality

  Air Quality AQ Index Pollutant
Not available.

Snow Depth

Station Depth Elevation

Earthquake Activity

City Distance Mag. Time & Date
Minimum magnitude displayed is 2.5.

Coastal Water Temperatures

Place Temperature

Stations

Nearby Weather Stations

Station Location Temp. Windchill Dew Point Humidity Wind Precip. Elev Updated Type
                   

Watches & Warnings

There are currently no watches in effect.